createdAt,value
2023-05-21T00:01:53.106Z,100509.97
2023-05-21T00:04:23.797Z,100512.81
2023-05-21T00:06:55.933Z,100517.22
2023-05-21T00:09:26.437Z,100514.78
2023-05-21T00:11:59.287Z,100519.59
2023-05-21T00:14:29.519Z,100515.53
2023-05-21T00:17:01.610Z,100516.38
2023-05-21T00:19:33.163Z,100511.53
2023-05-21T00:22:05.108Z,100514.34
2023-05-21T00:24:35.603Z,100511.53
2023-05-21T00:27:07.573Z,100511.91
2023-05-21T00:29:39.131Z,100512.28
2023-05-21T00:32:10.569Z,100517.13
2023-05-21T00:34:45.881Z,100511.88
2023-05-21T00:37:17.393Z,100514.69
2023-05-21T00:39:47.859Z,100506.59
2023-05-21T00:42:21.030Z,100508.63
2023-05-21T00:44:51.456Z,100494.53
2023-05-21T00:47:24.072Z,100493.69
2023-05-21T00:49:55.245Z,100488.84
2023-05-21T00:52:27.843Z,100489.66
2023-05-21T00:54:59.041Z,100492.84
2023-05-21T00:57:33.772Z,100486.38
2023-05-21T01:00:05.336Z,100484.75
2023-05-21T01:02:37.698Z,100483.94
2023-05-21T01:05:09.098Z,100479.03
2023-05-21T01:07:47.541Z,100483.88
2023-05-21T01:10:18.044Z,100476.19
2023-05-21T01:12:51.971Z,100465.31
2023-05-21T01:15:22.780Z,100466.84
2023-05-21T01:17:54.770Z,100472.09
2023-05-21T01:20:28.014Z,100464.38
2023-05-21T01:23:01.665Z,100479.22
2023-05-21T01:25:32.470Z,100479.59
2023-05-21T01:28:02.947Z,100484.78
2023-05-21T01:30:41.540Z,100493.25
2023-05-21T01:33:21.419Z,100501.69
2023-05-21T01:36:03.046Z,100509.28
2023-05-21T01:38:45.115Z,100502.75
2023-05-21T01:41:21.475Z,100520.41
2023-05-21T01:43:53.130Z,100522.78
2023-05-21T01:46:28.300Z,100530.00
2023-05-21T01:49:00.476Z,100530.41
2023-05-21T01:51:32.706Z,100528.34
2023-05-21T01:54:09.269Z,100534.72
2023-05-21T01:56:39.093Z,100531.47
2023-05-21T01:59:10.001Z,100525.03
2023-05-21T02:01:40.554Z,100525.81
2023-05-21T02:04:11.504Z,100524.63
2023-05-21T02:06:42.437Z,100525.47
2023-05-21T02:09:15.300Z,100516.63
2023-05-21T02:11:45.845Z,100521.47
2023-05-21T02:14:17.228Z,100520.59
2023-05-21T02:16:47.629Z,100513.25
2023-05-21T02:19:18.536Z,100509.56
2023-05-21T02:21:49.084Z,100515.59
2023-05-21T02:24:22.673Z,100517.16
2023-05-21T02:26:54.058Z,100502.66
2023-05-21T02:29:24.508Z,100511.09
2023-05-21T02:31:54.480Z,100507.47
2023-05-21T02:34:25.128Z,100517.91
2023-05-21T02:36:55.612Z,100519.53
2023-05-21T02:39:28.110Z,100526.81
2023-05-21T02:41:58.650Z,100530.81
2023-05-21T02:44:29.441Z,100525.19
2023-05-21T02:47:00.476Z,100525.19
2023-05-21T02:49:31.215Z,100531.19
2023-05-21T02:52:01.927Z,100532.00
2023-05-21T02:54:34.855Z,100538.47
2023-05-21T02:57:05.429Z,100550.09
2023-05-21T02:59:35.903Z,100562.19
2023-05-21T03:02:06.543Z,100566.53
2023-05-21T03:04:39.497Z,100565.75
2023-05-21T03:07:11.477Z,100554.88
2023-05-21T03:09:44.260Z,100566.13
2023-05-21T03:12:14.916Z,100564.09
2023-05-21T03:14:46.705Z,100568.94
2023-05-21T03:17:17.354Z,100561.69
2023-05-21T03:19:47.652Z,100569.75
2023-05-21T03:22:17.643Z,100569.34
2023-05-21T03:24:51.334Z,100578.25
2023-05-21T03:27:21.489Z,100576.63
2023-05-21T03:29:52.360Z,100578.25
2023-05-21T03:32:23.251Z,100564.16
2023-05-21T03:34:53.366Z,100565.00
2023-05-21T03:37:24.224Z,100571.81
2023-05-21T03:39:56.934Z,100566.19
2023-05-21T03:42:29.985Z,100576.25
2023-05-21T03:45:00.324Z,100572.63
2023-05-21T03:47:30.801Z,100571.06
2023-05-21T03:50:01.688Z,100569.06
2023-05-21T03:52:31.951Z,100567.88
2023-05-21T03:55:07.417Z,100566.28
2023-05-21T03:57:37.830Z,100573.56
2023-05-21T04:00:10.611Z,100574.75
2023-05-21T04:02:41.431Z,100571.94
2023-05-21T04:05:25.529Z,100571.94
2023-05-21T04:07:55.818Z,100573.94
2023-05-21T04:10:28.162Z,100584.38
2023-05-21T04:12:57.747Z,100581.22
2023-05-21T04:15:29.352Z,100575.63
2023-05-21T04:17:59.407Z,100572.47
2023-05-21T04:20:29.560Z,100575.34
2023-05-21T04:23:00.302Z,100577.81
2023-05-21T04:25:32.282Z,100568.97
2023-05-21T04:28:05.055Z,100564.53
2023-05-21T04:30:36.969Z,100565.72
2023-05-21T04:33:10.438Z,100575.41
2023-05-21T04:35:44.916Z,100581.91
2023-05-21T04:38:20.055Z,100585.63
2023-05-21T04:40:53.629Z,100589.25
2023-05-21T04:43:26.435Z,100593.69
2023-05-21T04:45:57.449Z,100591.31
2023-05-21T04:48:29.383Z,100598.19
2023-05-21T04:51:00.309Z,100599.09
2023-05-21T04:53:30.606Z,100600.34
2023-05-21T04:56:04.458Z,100596.38
2023-05-21T04:58:35.176Z,100598.44
2023-05-21T05:01:06.123Z,100587.22
2023-05-21T05:03:36.395Z,100600.19
2023-05-21T05:06:08.171Z,100602.59
2023-05-21T05:08:38.490Z,100599.44
2023-05-21T05:11:11.143Z,100598.22
2023-05-21T05:13:43.028Z,100594.63
2023-05-21T05:16:14.872Z,100603.16
2023-05-21T05:18:44.818Z,100614.13
2023-05-21T05:21:15.159Z,100607.31
2023-05-21T05:23:45.951Z,100612.19
2023-05-21T05:26:18.138Z,100625.53
2023-05-21T05:28:48.584Z,100611.47
2023-05-21T05:31:19.361Z,100610.34
2023-05-21T05:33:50.711Z,100612.00
2023-05-21T05:36:21.564Z,100610.53
2023-05-21T05:38:52.312Z,100604.53
2023-05-21T05:41:25.419Z,100613.47
2023-05-21T05:43:55.742Z,100611.09
2023-05-21T05:46:27.090Z,100613.13
2023-05-21T05:48:57.505Z,100613.91
2023-05-21T05:51:28.573Z,100606.69
2023-05-21T05:53:58.568Z,100612.31
2023-05-21T05:56:31.157Z,100602.66
2023-05-21T05:59:02.291Z,100602.66
2023-05-21T06:01:33.134Z,100608.75
2023-05-21T06:04:02.963Z,100604.34
2023-05-21T06:06:35.418Z,100601.16
2023-05-21T06:09:06.114Z,100601.94
2023-05-21T06:11:38.646Z,100602.38
2023-05-21T06:14:08.985Z,100588.28
2023-05-21T06:16:39.317Z,100588.69
2023-05-21T06:19:09.465Z,100583.09
2023-05-21T06:21:39.451Z,100581.94
2023-05-21T06:24:10.164Z,100579.94
2023-05-21T06:26:49.435Z,100574.75
2023-05-21T06:29:19.732Z,100590.09
2023-05-21T06:31:52.889Z,100593.38
2023-05-21T06:34:26.420Z,100599.13
2023-05-21T06:36:57.189Z,100595.59
2023-05-21T06:39:27.650Z,100601.69
2023-05-21T06:41:59.955Z,100596.13
2023-05-21T06:44:30.098Z,100590.94
2023-05-21T06:47:00.516Z,100577.66
2023-05-21T06:49:30.798Z,100574.03
2023-05-21T06:52:01.915Z,100582.09
2023-05-21T06:54:32.090Z,100584.56
2023-05-21T06:57:04.588Z,100580.50
2023-05-21T06:59:35.118Z,100578.91
2023-05-21T07:02:05.260Z,100574.06
2023-05-21T07:04:35.664Z,100569.63
2023-05-21T07:07:07.139Z,100576.13
2023-05-21T07:09:37.007Z,100568.53
2023-05-21T07:12:10.213Z,100560.09
2023-05-21T07:14:40.693Z,100554.06
2023-05-21T07:17:11.083Z,100557.34
2023-05-21T07:19:41.682Z,100571.53
2023-05-21T07:22:13.026Z,100573.19
2023-05-21T07:24:43.275Z,100573.63
2023-05-21T07:27:25.201Z,100576.47
2023-05-21T07:29:56.200Z,100568.41
2023-05-21T07:32:29.879Z,100563.19
2023-05-21T07:35:04.519Z,100566.44
2023-05-21T07:37:35.225Z,100570.06
2023-05-21T07:40:06.763Z,100566.88
2023-05-21T07:42:39.005Z,100564.84
2023-05-21T07:45:11.253Z,100558.84
2023-05-21T07:47:42.162Z,100554.00
2023-05-21T07:50:14.300Z,100551.19
2023-05-21T07:52:44.881Z,100556.50
2023-05-21T07:55:15.133Z,100555.72
2023-05-21T07:57:46.997Z,100548.47
2023-05-21T08:00:18.453Z,100553.34
2023-05-21T08:02:48.347Z,100546.53
2023-05-21T08:05:18.479Z,100553.81
2023-05-21T08:07:49.046Z,100545.75
2023-05-21T08:10:19.644Z,100533.63
2023-05-21T08:12:51.750Z,100541.34
2023-05-21T08:15:22.205Z,100554.72
2023-05-21T08:17:52.750Z,100548.28
2023-05-21T08:20:22.885Z,100530.50
2023-05-21T08:22:54.011Z,100524.03
2023-05-21T08:25:24.349Z,100524.47
2023-05-21T08:27:56.880Z,100524.09
2023-05-21T08:30:27.469Z,100501.84
2023-05-21T08:32:57.922Z,100508.34
2023-05-21T08:35:28.059Z,100510.38
2023-05-21T08:37:57.888Z,100510.38
2023-05-21T08:40:28.400Z,100505.94
2023-05-21T08:43:00.828Z,100508.38
2023-05-21T08:45:39.013Z,100509.19
2023-05-21T08:48:12.306Z,100509.59
2023-05-21T08:50:44.001Z,100508.38
2023-05-21T08:53:23.953Z,100503.13
2023-05-21T08:56:02.107Z,100493.84
2023-05-21T08:58:35.482Z,100499.91
2023-05-21T09:01:07.555Z,100494.66
2023-05-21T09:03:42.698Z,100488.56
2023-05-21T09:06:16.761Z,100490.63
2023-05-21T09:08:51.708Z,100496.28
2023-05-21T09:11:22.528Z,100491.84
2023-05-21T09:13:58.314Z,100486.56
2023-05-21T09:16:28.864Z,100486.16
2023-05-21T09:18:58.958Z,100481.28
2023-05-21T09:21:30.985Z,100485.75
2023-05-21T09:24:03.567Z,100496.28
2023-05-21T09:26:34.753Z,100507.19
2023-05-21T09:29:07.979Z,100505.19
2023-05-21T09:31:38.887Z,100504.34
2023-05-21T09:34:10.142Z,100497.88
2023-05-21T09:36:41.508Z,100491.38
2023-05-21T09:39:16.667Z,100513.25
2023-05-21T09:41:47.474Z,100508.41
2023-05-21T09:44:19.837Z,100494.22
2023-05-21T09:46:50.411Z,100501.53
2023-05-21T09:49:28.596Z,100491.38
2023-05-21T09:52:00.067Z,100484.50
2023-05-21T09:54:36.895Z,100472.72
2023-05-21T09:57:07.778Z,100473.13
2023-05-21T09:59:44.037Z,100460.56
2023-05-21T10:02:27.397Z,100449.63
2023-05-21T10:05:00.969Z,100445.56
2023-05-21T10:07:32.263Z,100435.41
2023-05-21T10:10:05.949Z,100435.81
2023-05-21T10:12:38.640Z,100438.22
2023-05-21T10:15:17.371Z,100429.28
2023-05-21T10:17:49.286Z,100416.72
2023-05-21T10:20:21.540Z,100406.59
2023-05-21T10:22:53.455Z,100403.34
2023-05-21T10:25:26.115Z,100402.91
2023-05-21T10:27:59.701Z,100394.81
2023-05-21T10:30:34.100Z,100386.69
2023-05-21T10:33:06.817Z,100380.59
2023-05-21T10:35:39.200Z,100372.47
2023-05-21T10:38:12.806Z,100371.25
2023-05-21T10:40:42.827Z,100361.50
2023-05-21T10:43:53.582Z,100355.81
2023-05-21T10:47:22.534Z,100350.94
2023-05-21T10:50:18.623Z,100348.50
2023-05-21T10:53:10.587Z,100349.69
2023-05-21T10:55:58.886Z,100344.81
2023-05-21T10:59:07.686Z,100357.34
2023-05-21T11:01:43.740Z,100352.09
2023-05-21T11:04:16.105Z,100356.97
2023-05-21T11:06:51.036Z,100362.59
2023-05-21T11:09:21.564Z,100357.72
2023-05-21T11:11:54.795Z,100359.72
2023-05-21T11:14:39.828Z,100367.81
2023-05-21T11:17:38.306Z,100355.28
2023-05-21T11:20:14.570Z,100354.88
2023-05-21T11:22:44.891Z,100348.00
2023-05-21T11:25:15.900Z,100333.03
2023-05-21T11:27:45.510Z,100327.34
2023-05-21T11:30:22.165Z,100330.53
2023-05-21T11:33:30.908Z,100337.88
2023-05-21T11:36:02.189Z,100337.09
2023-05-21T11:38:34.537Z,100337.47
2023-05-21T11:41:08.005Z,100333.81
2023-05-21T11:43:43.760Z,100343.16
2023-05-21T11:46:17.425Z,100334.63
2023-05-21T11:48:52.571Z,100333.03
2023-05-21T11:51:24.351Z,100337.88
2023-05-21T11:53:54.479Z,100345.19
2023-05-21T11:56:25.663Z,100335.88
2023-05-21T11:59:01.119Z,100343.16
2023-05-21T12:01:32.199Z,100329.78
2023-05-21T12:04:06.944Z,100335.47
2023-05-21T12:06:38.818Z,100337.47
2023-05-21T12:09:10.837Z,100326.53
2023-05-21T12:11:41.889Z,100311.53
2023-05-21T12:14:13.111Z,100312.78
2023-05-21T12:16:43.598Z,100315.22
2023-05-21T12:19:20.672Z,100309.94
2023-05-21T12:21:52.032Z,100308.31
2023-05-21T12:24:22.371Z,100303.44
2023-05-21T12:26:53.086Z,100290.88
2023-05-21T12:29:23.906Z,100293.28
2023-05-21T12:31:54.461Z,100291.66
2023-05-21T12:34:51.637Z,100293.69
2023-05-21T12:37:26.646Z,100289.66
2023-05-21T12:40:00.516Z,100297.38
2023-05-21T12:42:35.334Z,100291.31
2023-05-21T12:45:11.042Z,100290.94
2023-05-21T12:47:41.730Z,100305.50
2023-05-21T12:50:16.885Z,100296.63
2023-05-21T12:52:47.834Z,100299.88
2023-05-21T12:55:19.368Z,100290.16
2023-05-21T12:57:49.613Z,100279.25
2023-05-21T13:00:27.262Z,100279.63
2023-05-21T13:03:00.508Z,100272.75
2023-05-21T13:05:32.976Z,100262.22
2023-05-21T13:08:02.746Z,100260.63
2023-05-21T13:10:33.204Z,100256.59
2023-05-21T13:13:03.629Z,100251.34
2023-05-21T13:15:33.721Z,100249.28
2023-05-21T13:18:04.406Z,100260.28
2023-05-21T13:20:37.161Z,100256.63
2023-05-21T13:23:10.569Z,100253.38
2023-05-21T13:25:41.480Z,100264.34
2023-05-21T13:28:15.597Z,100271.25
2023-05-21T13:30:46.064Z,100274.50
2023-05-21T13:33:16.622Z,100266.81
2023-05-21T13:35:51.718Z,100264.75
2023-05-21T13:38:22.307Z,100251.41
2023-05-21T13:40:52.579Z,100237.22
2023-05-21T13:43:23.178Z,100240.84
2023-05-21T13:45:54.176Z,100237.59
2023-05-21T13:48:24.569Z,100233.56
2023-05-21T13:50:57.174Z,100221.41
2023-05-21T13:53:27.766Z,100224.66
2023-05-21T13:55:58.066Z,100222.22
2023-05-21T13:58:34.962Z,100218.97
2023-05-21T14:01:06.416Z,100220.63
2023-05-21T14:03:37.289Z,100224.28
2023-05-21T14:06:15.659Z,100231.97
2023-05-21T14:08:46.551Z,100228.34
2023-05-21T14:11:26.881Z,100233.19
2023-05-21T14:13:58.455Z,100229.56
2023-05-21T14:16:35.652Z,100225.91
2023-05-21T14:19:09.342Z,100224.28
2023-05-21T14:21:43.790Z,100219.44
2023-05-21T14:24:14.867Z,100211.34
2023-05-21T14:26:52.340Z,100209.31
2023-05-21T14:29:25.563Z,100187.03
2023-05-21T14:32:04.558Z,100180.13
2023-05-21T14:34:35.444Z,100180.53
2023-05-21T14:37:11.527Z,100192.72
2023-05-21T14:39:49.770Z,100191.88
2023-05-21T14:42:20.965Z,100198.78
2023-05-21T14:44:52.336Z,100208.50
2023-05-21T14:47:22.800Z,100196.38
2023-05-21T14:49:53.219Z,100196.38
2023-05-21T14:52:26.059Z,100195.53
2023-05-21T14:55:00.530Z,100189.06
2023-05-21T14:57:44.213Z,100188.66
2023-05-21T15:00:20.645Z,100185.81
2023-05-21T15:02:57.571Z,100175.31
2023-05-21T15:05:36.393Z,100164.34
2023-05-21T15:13:39.995Z,100162.34
2023-05-21T15:17:20.998Z,100141.75
2023-05-21T15:19:55.539Z,100122.69
2023-05-21T15:22:29.569Z,100090.25
2023-05-21T15:25:02.131Z,100107.69
2023-05-21T15:27:32.770Z,100132.78
2023-05-21T15:30:10.504Z,100138.06
2023-05-21T15:32:41.155Z,100132.78
2023-05-21T15:35:13.598Z,100134.00
2023-05-21T15:37:44.060Z,100124.69
2023-05-21T15:40:16.370Z,100121.84
2023-05-21T15:42:46.423Z,100125.91
2023-05-21T15:45:19.097Z,100132.41
2023-05-21T15:47:54.602Z,100140.91
2023-05-21T15:50:25.228Z,100155.50
2023-05-21T15:52:55.283Z,100162.78
2023-05-21T15:55:25.792Z,100169.28
2023-05-21T15:58:12.325Z,100160.78
2023-05-21T16:00:47.897Z,100159.53
2023-05-21T16:03:17.972Z,100153.06
2023-05-21T16:05:47.789Z,100151.84
2023-05-21T16:08:17.793Z,100160.34
2023-05-21T16:10:48.155Z,100161.56
2023-05-21T16:13:23.088Z,100160.78
2023-05-21T16:15:55.284Z,100166.44
2023-05-21T16:18:26.682Z,100159.94
2023-05-21T16:20:59.177Z,100164.00
2023-05-21T16:23:29.834Z,100166.03
2023-05-21T16:26:00.140Z,100167.28
2023-05-21T16:28:33.025Z,100168.06
2023-05-21T16:31:05.299Z,100171.31
2023-05-21T16:33:35.550Z,100176.59
2023-05-21T16:36:08.731Z,100175.38
2023-05-21T16:38:38.673Z,100179.84
2023-05-21T16:41:09.049Z,100177.41
2023-05-21T16:43:39.322Z,100178.66
2023-05-21T16:46:11.782Z,100179.88
2023-05-21T16:48:43.161Z,100182.72
2023-05-21T16:51:13.192Z,100192.44
2023-05-21T16:53:43.226Z,100186.38
2023-05-21T16:56:13.735Z,100189.22
2023-05-21T16:58:47.570Z,100198.16
2023-05-21T17:01:19.902Z,100188.03
2023-05-21T17:03:50.340Z,100183.56
2023-05-21T17:06:20.837Z,100193.28
2023-05-21T17:08:51.557Z,100184.78
2023-05-21T17:11:22.142Z,100190.06
2023-05-21T17:13:52.672Z,100194.13
2023-05-21T17:16:27.135Z,100194.94
2023-05-21T17:18:57.685Z,100186.81
2023-05-21T17:21:28.684Z,100177.94
2023-05-21T17:23:58.293Z,100168.63
2023-05-21T17:26:29.299Z,100184.00
2023-05-21T17:28:59.798Z,100185.22
2023-05-21T17:31:44.360Z,100198.63
2023-05-21T17:34:15.462Z,100197.00
2023-05-21T17:37:06.619Z,100198.22
2023-05-21T17:39:39.739Z,100196.59
2023-05-21T17:42:12.032Z,100194.19
2023-05-21T17:44:50.346Z,100201.88
2023-05-21T17:47:23.251Z,100198.66
2023-05-21T17:49:53.716Z,100201.50
2023-05-21T17:52:24.157Z,100200.69
2023-05-21T17:54:54.579Z,100197.84
2023-05-21T17:57:25.051Z,100199.06
2023-05-21T17:59:56.688Z,100203.94
2023-05-21T18:02:32.195Z,100209.59
2023-05-21T18:05:05.369Z,100208.78
2023-05-21T18:07:37.197Z,100213.66
2023-05-21T18:10:08.535Z,100210.00
2023-05-21T18:12:39.366Z,100209.19
2023-05-21T18:15:10.704Z,100201.91
2023-05-21T18:17:58.825Z,100207.16
2023-05-21T18:20:30.554Z,100205.16
2023-05-21T18:23:00.900Z,100198.69
2023-05-21T18:25:31.498Z,100200.72
2023-05-21T18:28:02.586Z,100194.66
2023-05-21T18:30:33.016Z,100187.38
2023-05-21T18:33:04.884Z,100198.69
2023-05-21T18:35:35.490Z,100195.06
2023-05-21T18:38:10.574Z,100187.75
2023-05-21T18:40:41.407Z,100182.91
2023-05-21T18:43:17.561Z,100182.91
2023-05-21T18:45:49.647Z,100181.25
2023-05-21T18:48:25.069Z,100186.94
2023-05-21T18:50:59.745Z,100176.81
2023-05-21T18:53:33.464Z,100178.84
2023-05-21T18:56:05.493Z,100177.22
2023-05-21T18:58:36.579Z,100168.34
2023-05-21T19:01:11.604Z,100162.28
2023-05-21T19:03:44.940Z,100163.91
2023-05-21T19:06:16.099Z,100152.16
2023-05-21T19:08:47.081Z,100144.50
2023-05-21T19:11:19.148Z,100147.75
2023-05-21T19:13:49.557Z,100145.34
2023-05-21T19:16:19.429Z,100136.84
2023-05-21T19:18:51.932Z,100131.97
2023-05-21T19:21:32.173Z,100128.75
2023-05-21T19:24:05.827Z,100119.88
2023-05-21T19:26:36.782Z,100122.38
2023-05-21T19:29:07.431Z,100109.81
2023-05-21T19:31:45.514Z,100111.03
2023-05-21T19:34:37.981Z,100093.66
2023-05-21T19:37:09.680Z,100102.53
2023-05-21T19:39:46.007Z,100096.88
2023-05-21T19:42:18.297Z,100081.13
2023-05-21T19:44:49.024Z,100074.22
2023-05-21T19:47:19.292Z,100064.13
2023-05-21T19:49:56.588Z,100062.53
2023-05-21T19:52:38.000Z,100051.59
2023-05-21T19:55:20.983Z,100053.63
2023-05-21T19:57:51.890Z,100046.75
2023-05-21T20:00:59.628Z,100036.59
2023-05-21T20:06:58.954Z,100031.34
2023-05-21T20:09:29.372Z,100021.28
2023-05-21T20:11:59.816Z,100010.75
2023-05-21T20:14:29.960Z,100001.03
2023-05-21T20:17:16.750Z,99990.91
2023-05-21T20:19:48.404Z,99990.09
2023-05-21T20:22:25.046Z,99994.13
2023-05-21T20:24:56.263Z,99986.03
2023-05-21T20:27:26.855Z,99987.66
2023-05-21T20:29:56.663Z,99975.09
2023-05-21T20:32:29.468Z,99971.00
2023-05-21T20:35:03.398Z,99966.97
2023-05-21T20:37:37.404Z,99961.31
2023-05-21T20:40:13.444Z,99950.78
2023-05-21T20:42:45.634Z,99954.84
2023-05-21T20:45:16.245Z,99956.47
2023-05-21T20:47:48.343Z,99946.75
2023-05-21T20:50:22.070Z,99945.91
2023-05-21T20:52:55.046Z,99946.75
2023-05-21T20:55:25.014Z,99948.34
2023-05-21T20:57:55.132Z,99961.69
2023-05-21T21:00:25.301Z,99957.25
2023-05-21T21:02:55.216Z,99943.09
2023-05-21T21:05:26.652Z,99933.81
2023-05-21T21:08:08.460Z,99921.66
2023-05-21T21:10:42.841Z,99913.16
2023-05-21T21:13:34.614Z,99907.50
2023-05-21T21:16:26.730Z,99905.47
2023-05-21T21:19:01.200Z,99893.31
2023-05-21T21:21:41.100Z,99884.03
2023-05-21T21:24:17.180Z,99880.00
2023-05-21T21:26:53.178Z,99881.59
2023-05-21T21:29:29.410Z,99877.94
2023-05-21T21:32:11.164Z,99865.81
2023-05-21T21:34:44.220Z,99866.63
2023-05-21T21:37:24.875Z,99861.78
2023-05-21T21:40:04.850Z,99866.63
2023-05-21T21:42:57.752Z,99854.88
2023-05-21T21:45:35.822Z,99844.78
2023-05-21T21:48:13.323Z,99844.78
2023-05-21T21:50:56.675Z,99837.06
2023-05-21T21:53:31.010Z,99832.63
2023-05-21T21:56:13.120Z,99838.28
2023-05-21T21:58:48.195Z,99834.66
2023-05-21T22:01:37.684Z,99837.06
2023-05-21T22:04:23.403Z,99824.13
2023-05-21T22:07:11.570Z,99821.31
2023-05-21T22:09:44.662Z,99824.94
2023-05-21T22:12:17.803Z,99826.19
2023-05-21T22:14:47.694Z,99821.72
2023-05-21T22:17:18.163Z,99821.34
2023-05-21T22:19:48.005Z,99821.34
2023-05-21T22:22:18.513Z,99823.38
2023-05-21T22:24:48.947Z,99814.88
2023-05-21T22:27:21.683Z,99816.09
2023-05-21T22:29:52.066Z,99808.81
2023-05-21T22:32:22.957Z,99803.59
2023-05-21T22:34:53.404Z,99799.94
2023-05-21T22:37:23.951Z,99788.63
2023-05-21T22:39:54.384Z,99789.44
2023-05-21T22:42:26.101Z,99777.28
2023-05-21T22:44:56.539Z,99783.78
2023-05-21T22:47:26.990Z,99773.66
2023-05-21T22:49:58.802Z,99765.16
2023-05-21T22:52:29.854Z,99765.97
2023-05-21T22:55:01.531Z,99755.84
2023-05-21T22:57:33.808Z,99762.34
2023-05-21T23:00:04.743Z,99753.03
2023-05-21T23:02:37.845Z,99761.50
2023-05-21T23:05:09.347Z,99752.63
2023-05-21T23:07:40.000Z,99753.84
2023-05-21T23:10:11.466Z,99752.28
2023-05-21T23:12:43.839Z,99749.00
2023-05-21T23:15:15.363Z,99751.03
2023-05-21T23:17:46.341Z,99752.63
2023-05-21T23:20:18.145Z,99743.72
2023-05-21T23:22:52.275Z,99737.63
2023-05-21T23:25:22.679Z,99735.63
2023-05-21T23:27:54.070Z,99735.97
2023-05-21T23:30:24.426Z,99724.25
2023-05-21T23:32:54.822Z,99723.81
2023-05-21T23:35:24.688Z,99712.88
2023-05-21T23:37:58.730Z,99714.84
2023-05-21T23:40:28.399Z,99705.94
2023-05-21T23:43:00.963Z,99711.19
2023-05-21T23:45:31.625Z,99699.84
2023-05-21T23:48:01.813Z,99703.50
2023-05-21T23:50:32.372Z,99703.88
2023-05-21T23:53:02.419Z,99707.53
2023-05-21T23:55:32.521Z,99700.63
2023-05-21T23:58:04.932Z,99694.16
